Rechercher aéroport 
image banner adimage banner adimage banner ad
image banner ad

32CN - Pacific Bell-2300 Imperial Hwy

Situé à El Segundo, United States

ICAO - 32CN, IATA -

Données fournies par Airmate  

Information générale

Coordonnées: N33°55'50" W118°22'57"
Élévation : 209 feet MSL.
Variation magnétique : 14° East
Voir autres Aéroports à California

Données opérationnelles

Special qualification required
Heure actuelle UTC:
Heure actuelle locale:
Météo à : KLAX - Los Angeles Intl ( 3 km )
METAR: KLAX 262153Z 25012KT 10SM SCT013 BKN120 21/17 A2995 RMK AO2 SLP139 T02060167 $
TAF: KLAX 262101Z 2621/2724 26012KT P6SM VCSH OVC011 FM262200 26010KT P6SM VCSH OVC100 FM270500 26008KT P6SM BKN012 OVC100 FM271000 VRB03KT P6SM OVC008 FM271700 26006KT P6SM SCT010 FM272000 26010KT P6SM SCT010
Voir NOTAMs / SUP AIP / TFR affectant cet aéroport [VIEW]
Fréquences de communication: [VIEW]

Pistes:

Coordonnées de l'aéroport

Adresse: El Segundo United States

Vue satellite de 32CN